createdAt,value
2022-12-13T00:00:34.467Z,18.43
2022-12-13T00:03:17.155Z,18.13
2022-12-13T00:05:59.374Z,17.90
2022-12-13T00:08:49.165Z,18.38
2022-12-13T00:11:38.206Z,19.52
2022-12-13T00:14:23.486Z,20.17
2022-12-13T00:17:12.112Z,22.52
2022-12-13T00:19:57.798Z,21.60
2022-12-13T00:22:47.118Z,23.30
2022-12-13T00:25:29.498Z,23.45
2022-12-13T00:28:18.217Z,23.83
2022-12-13T00:31:35.244Z,22.92
2022-12-13T00:34:14.199Z,22.35
2022-12-13T00:37:00.059Z,21.27
2022-12-13T00:39:49.209Z,20.45
2022-12-13T00:42:31.481Z,19.70
2022-12-13T00:45:21.076Z,21.35
2022-12-13T00:48:10.064Z,18.17
2022-12-13T00:50:58.443Z,16.83
2022-12-13T00:53:41.202Z,17.25
2022-12-13T00:56:26.652Z,16.63
2022-12-13T00:59:15.207Z,16.23
2022-12-13T01:01:57.591Z,16.60
2022-12-13T01:04:46.208Z,18.52
2022-12-13T01:07:28.447Z,16.73
2022-12-13T01:10:18.269Z,17.10
2022-12-13T01:13:06.451Z,18.50
2022-12-13T01:15:53.217Z,17.92
2022-12-13T01:18:42.206Z,19.00
2022-12-13T01:21:27.486Z,19.73
2022-12-13T01:24:19.152Z,19.52
2022-12-13T01:27:02.470Z,18.98
2022-12-13T01:29:51.161Z,18.30
2022-12-13T01:32:33.497Z,16.02
2022-12-13T01:35:25.113Z,18.38
2022-12-13T01:38:15.857Z,18.92
2022-12-13T01:41:17.375Z,17.83
2022-12-13T01:44:09.465Z,16.42
2022-12-13T01:46:52.502Z,16.48
2022-12-13T01:49:34.359Z,16.87
2022-12-13T01:52:28.258Z,17.50
2022-12-13T01:58:03.223Z,16.67
2022-12-13T02:00:47.052Z,18.83
2022-12-13T02:03:37.055Z,19.40
2022-12-13T02:06:33.458Z,21.35
2022-12-13T02:09:17.061Z,20.30
2022-12-13T02:12:05.479Z,20.45
2022-12-13T02:14:49.190Z,19.63
2022-12-13T02:18:06.537Z,19.60
2022-12-13T02:20:54.061Z,19.13
2022-12-13T02:23:57.439Z,19.13
2022-12-13T02:27:03.164Z,19.52
2022-12-13T02:29:51.481Z,19.80
2022-12-13T02:32:34.133Z,20.00
2022-12-13T02:35:30.618Z,19.47
2022-12-13T02:38:26.267Z,19.40
2022-12-13T02:41:48.013Z,20.10
2022-12-13T02:44:45.173Z,17.65
2022-12-13T02:47:38.214Z,17.38
2022-12-13T02:50:28.455Z,18.08
2022-12-13T02:53:13.055Z,17.23
2022-12-13T02:55:55.414Z,16.20
2022-12-13T02:58:50.210Z,16.17
2022-12-13T03:01:52.440Z,16.58
2022-12-13T03:05:30.173Z,15.07
2022-12-13T03:08:40.177Z,14.73
2022-12-13T03:11:52.015Z,15.70
2022-12-13T03:14:35.147Z,16.80
2022-12-13T03:17:27.169Z,16.23
2022-12-13T03:20:22.450Z,16.85
2022-12-13T03:23:12.133Z,16.38
2022-12-13T03:25:57.443Z,16.02
2022-12-13T03:28:47.055Z,15.55
2022-12-13T03:31:36.213Z,15.43
2022-12-13T03:34:26.051Z,14.65
2022-12-13T03:37:34.122Z,15.43
2022-12-13T03:40:16.547Z,15.45
2022-12-13T03:43:07.176Z,15.77
2022-12-13T03:45:55.484Z,16.20
2022-12-13T03:48:38.228Z,16.17
2022-12-13T03:51:20.385Z,17.75
2022-12-13T03:54:09.148Z,17.63
2022-12-13T03:56:58.037Z,17.83
2022-12-13T03:59:47.201Z,17.50
2022-12-13T04:02:36.221Z,17.02
2022-12-13T04:05:18.645Z,18.25
2022-12-13T04:08:08.168Z,16.90
2022-12-13T04:11:23.113Z,17.08
2022-12-13T04:14:12.281Z,16.42
2022-12-13T04:17:04.491Z,17.92
2022-12-13T04:19:53.183Z,25.02
2022-12-13T04:22:35.444Z,23.73
2022-12-13T04:25:24.047Z,24.67
2022-12-13T04:28:06.472Z,24.30
2022-12-13T04:30:55.046Z,21.67
2022-12-13T04:33:37.527Z,21.90
2022-12-13T04:36:32.139Z,21.38
2022-12-13T04:39:22.812Z,18.58
2022-12-13T04:42:12.234Z,19.38
2022-12-13T04:44:55.499Z,18.00
2022-12-13T04:47:44.187Z,18.73
2022-12-13T04:50:27.466Z,16.58
2022-12-13T04:53:16.144Z,17.23
2022-12-13T04:55:58.437Z,17.40
2022-12-13T04:58:47.091Z,17.00
2022-12-13T05:01:29.428Z,17.42
2022-12-13T05:04:18.066Z,18.10
2022-12-13T05:07:00.477Z,18.73
2022-12-13T05:09:49.254Z,19.98
2022-12-13T05:12:31.596Z,19.02
2022-12-13T05:15:20.135Z,19.08
2022-12-13T05:18:11.032Z,18.83
2022-12-13T05:20:54.139Z,18.90
2022-12-13T05:23:43.125Z,17.67
2022-12-13T05:26:31.461Z,18.17
2022-12-13T05:29:14.175Z,18.52
2022-12-13T05:31:56.446Z,18.17
2022-12-13T05:34:45.161Z,16.42
2022-12-13T05:37:35.161Z,16.35
2022-12-13T05:40:17.453Z,14.45
2022-12-13T05:43:21.900Z,13.40
2022-12-13T05:46:04.406Z,13.82
2022-12-13T05:48:53.164Z,13.57
2022-12-13T05:51:35.381Z,13.90
2022-12-13T05:54:24.044Z,14.35
2022-12-13T05:57:06.565Z,14.02
2022-12-13T05:59:55.114Z,15.52
2022-12-13T06:02:48.516Z,14.15
2022-12-13T06:05:38.159Z,13.40
2022-12-13T06:08:25.041Z,14.35
2022-12-13T06:11:31.641Z,14.68
2022-12-13T06:14:22.505Z,16.30
2022-12-13T06:17:12.116Z,14.70
2022-12-13T06:19:54.400Z,15.63
2022-12-13T06:22:43.016Z,14.98
2022-12-13T06:25:31.542Z,13.60
2022-12-13T06:28:21.127Z,14.10
2022-12-13T06:31:03.475Z,13.43
2022-12-13T06:33:52.110Z,13.07
2022-12-13T06:36:34.540Z,13.55
2022-12-13T06:39:23.111Z,12.07
2022-12-13T06:42:07.146Z,12.45
2022-12-13T06:44:59.048Z,11.10
2022-12-13T06:47:48.127Z,10.43
2022-12-13T06:50:37.023Z,13.32
2022-12-13T06:53:26.060Z,11.55
2022-12-13T06:56:11.558Z,11.05
2022-12-13T06:59:01.668Z,10.63
2022-12-13T07:01:50.903Z,9.60
2022-12-13T07:04:34.164Z,9.13
2022-12-13T07:07:23.131Z,8.32
2022-12-13T07:10:05.433Z,8.50
2022-12-13T07:12:56.083Z,8.88
2022-12-13T07:15:38.479Z,8.82
2022-12-13T07:18:27.147Z,9.98
2022-12-13T07:21:21.743Z,8.35
2022-12-13T07:24:11.046Z,8.13
2022-12-13T07:27:00.164Z,7.93
2022-12-13T07:29:42.763Z,7.78
2022-12-13T07:32:32.044Z,8.20
2022-12-13T07:35:14.448Z,8.23
2022-12-13T07:38:03.151Z,8.10
2022-12-13T07:40:47.491Z,7.82
2022-12-13T07:43:37.021Z,7.63
2022-12-13T07:46:23.582Z,6.97
2022-12-13T07:49:15.140Z,6.72
2022-12-13T07:51:58.109Z,7.30
2022-12-13T07:54:48.110Z,7.30
2022-12-13T07:57:36.354Z,6.43
2022-12-13T08:00:19.280Z,7.05
2022-12-13T08:03:12.210Z,7.68
2022-12-13T08:06:19.178Z,7.72
2022-12-13T08:09:01.295Z,7.30
2022-12-13T08:11:50.207Z,7.07
2022-12-13T08:14:32.609Z,6.80
2022-12-13T08:17:21.201Z,6.65
2022-12-13T08:20:09.426Z,6.97
2022-12-13T08:22:53.136Z,7.03
2022-12-13T08:25:52.753Z,7.43
2022-12-13T08:28:36.199Z,7.13
2022-12-13T08:31:18.367Z,8.65
2022-12-13T08:34:07.194Z,8.23
2022-12-13T08:36:49.471Z,7.55
2022-12-13T08:39:38.189Z,8.27
2022-12-13T08:42:33.950Z,8.27
2022-12-13T08:45:23.255Z,7.85
2022-12-13T08:48:06.392Z,7.95
2022-12-13T08:50:55.034Z,8.13
2022-12-13T08:53:40.791Z,8.68
2022-12-13T08:56:30.084Z,6.75
2022-12-13T08:59:12.435Z,7.25
2022-12-13T09:02:05.477Z,9.05
2022-12-13T09:04:54.103Z,6.32
2022-12-13T09:07:44.087Z,7.43
2022-12-13T09:10:38.411Z,7.00
2022-12-13T09:13:31.095Z,7.57
2022-12-13T09:16:24.486Z,7.80
2022-12-13T09:19:25.706Z,7.33
2022-12-13T09:22:15.072Z,7.60
2022-12-13T09:24:57.542Z,8.43
2022-12-13T09:27:52.052Z,7.82
2022-12-13T09:30:34.376Z,7.20
2022-12-13T09:33:29.977Z,6.75
2022-12-13T09:36:26.071Z,7.00
2022-12-13T09:39:14.970Z,6.95
2022-12-13T09:42:13.079Z,7.13
2022-12-13T09:45:03.136Z,6.85
2022-12-13T09:48:01.952Z,6.97
2022-12-13T09:51:18.137Z,7.55
2022-12-13T09:53:58.939Z,7.13
2022-12-13T09:56:51.630Z,6.65
2022-12-13T09:59:40.147Z,7.30
2022-12-13T10:02:36.641Z,6.35
2022-12-13T10:05:40.150Z,6.35
2022-12-13T10:08:31.972Z,7.18
2022-12-13T10:11:21.301Z,5.97
2022-12-13T10:14:21.689Z,6.10
2022-12-13T10:17:15.153Z,6.30
2022-12-13T10:20:03.350Z,6.25
2022-12-13T10:23:01.569Z,6.78
2022-12-13T10:26:02.897Z,7.10
2022-12-13T10:28:52.075Z,6.55
2022-12-13T10:31:58.897Z,6.05
2022-12-13T10:34:52.122Z,7.18
2022-12-13T10:37:41.486Z,7.55
2022-12-13T10:40:43.102Z,7.40
2022-12-13T10:43:42.943Z,7.50
2022-12-13T10:46:32.166Z,7.68
2022-12-13T10:49:32.395Z,6.63
2022-12-13T10:52:43.459Z,7.77
2022-12-13T10:55:45.945Z,7.68
2022-12-13T10:58:37.622Z,7.65
2022-12-13T11:01:38.084Z,7.53
2022-12-13T11:04:40.093Z,7.75
2022-12-13T11:07:39.494Z,7.95
2022-12-13T11:10:37.133Z,8.43
2022-12-13T11:13:40.014Z,9.45
2022-12-13T11:16:50.015Z,8.45
2022-12-13T11:19:52.343Z,9.73
2022-12-13T11:22:45.086Z,9.65
2022-12-13T11:25:41.147Z,9.85
2022-12-13T11:28:41.574Z,9.20
2022-12-13T11:31:34.115Z,10.23
2022-12-13T11:34:47.342Z,10.23
2022-12-13T11:38:02.076Z,10.10
2022-12-13T11:40:55.138Z,10.00
2022-12-13T11:43:49.392Z,10.40
2022-12-13T11:46:45.026Z,11.15
2022-12-13T11:49:38.105Z,10.48
2022-12-13T11:52:32.390Z,10.45
2022-12-13T11:55:42.170Z,11.55
2022-12-13T11:59:13.415Z,11.30
2022-12-13T12:02:16.733Z,11.55
2022-12-13T12:05:11.152Z,12.85
2022-12-13T12:08:33.482Z,11.88
2022-12-13T12:11:57.103Z,12.00
2022-12-13T12:15:26.864Z,13.82
2022-12-13T12:18:09.355Z,13.43
2022-12-13T12:21:18.003Z,13.35
2022-12-13T12:24:19.083Z,12.95
2022-12-13T12:27:48.779Z,13.43
2022-12-13T12:30:36.118Z,15.10
2022-12-13T12:33:29.422Z,13.88
2022-12-13T12:36:33.090Z,13.73
2022-12-13T12:39:47.565Z,14.10
2022-12-13T12:43:19.109Z,14.38
2022-12-13T12:46:17.597Z,14.55
2022-12-13T12:49:30.156Z,15.07
2022-12-13T12:52:26.362Z,14.48
2022-12-13T12:55:28.042Z,15.18
2022-12-13T12:58:19.550Z,15.07
2022-12-13T13:01:11.040Z,15.48
2022-12-13T13:04:03.060Z,16.77
2022-12-13T13:07:03.376Z,14.65
2022-12-13T13:09:47.052Z,16.02
2022-12-13T13:12:43.034Z,16.40
2022-12-13T13:15:40.186Z,16.65
2022-12-13T13:18:59.310Z,17.35
2022-12-13T13:22:31.101Z,17.85
2022-12-13T13:26:16.386Z,18.30
2022-12-13T13:28:58.110Z,17.30
2022-12-13T13:32:29.061Z,19.17
2022-12-13T13:35:33.305Z,19.80
2022-12-13T13:38:31.075Z,19.83
2022-12-13T13:41:57.059Z,20.42
2022-12-13T13:44:57.484Z,19.10
2022-12-13T13:47:47.001Z,18.67
2022-12-13T13:50:44.376Z,19.77
2022-12-13T13:53:58.964Z,21.15
2022-12-13T13:57:06.000Z,21.02
2022-12-13T14:00:12.102Z,22.55
2022-12-13T14:03:59.236Z,22.30
2022-12-13T14:07:00.932Z,21.58
2022-12-13T14:10:09.115Z,21.27
2022-12-13T14:13:18.986Z,22.00
2022-12-13T14:16:29.243Z,22.15
2022-12-13T14:20:11.038Z,22.45
2022-12-13T14:23:08.042Z,24.45
2022-12-13T14:26:26.556Z,24.73
2022-12-13T14:29:25.129Z,26.00
2022-12-13T14:32:07.421Z,28.17
2022-12-13T14:34:56.005Z,26.98
2022-12-13T14:37:43.124Z,28.80
2022-12-13T14:40:35.055Z,30.27
2022-12-13T14:43:56.934Z,30.23
2022-12-13T14:46:45.442Z,29.52
2022-12-13T14:49:29.072Z,31.75
2022-12-13T14:52:25.919Z,28.42
2022-12-13T14:55:18.004Z,32.30
2022-12-13T14:58:05.722Z,32.40
2022-12-13T15:00:58.978Z,31.75
2022-12-13T15:03:41.296Z,35.45
2022-12-13T15:06:32.075Z,33.63
2022-12-13T15:09:23.417Z,33.60
2022-12-13T15:12:24.455Z,34.10
2022-12-13T15:15:10.097Z,33.78
2022-12-13T15:17:59.484Z,33.38
2022-12-13T15:20:49.308Z,34.13
2022-12-13T15:23:49.152Z,35.63
2022-12-13T15:29:34.000Z,34.75
2022-12-13T15:32:20.191Z,36.33
2022-12-13T15:35:09.130Z,36.20
2022-12-13T15:37:51.462Z,36.75
2022-12-13T15:40:40.053Z,37.85
2022-12-13T15:43:37.966Z,38.60
2022-12-13T15:46:36.189Z,39.92
2022-12-13T15:49:37.488Z,42.42
2022-12-13T15:52:27.068Z,44.95
2022-12-13T15:55:19.453Z,45.67
2022-12-13T15:58:10.905Z,47.20
2022-12-13T16:00:57.496Z,47.67
2022-12-13T16:03:55.078Z,47.90
2022-12-13T16:06:39.561Z,47.30
2022-12-13T16:09:30.028Z,47.67
2022-12-13T16:12:15.350Z,49.55
2022-12-13T16:15:33.013Z,47.67
2022-12-13T16:18:26.527Z,46.60
2022-12-13T16:21:18.024Z,47.05
2022-12-13T16:24:00.995Z,46.30
2022-12-13T16:26:56.008Z,45.83
2022-12-13T16:29:38.414Z,45.70
2022-12-13T16:32:27.042Z,44.55
2022-12-13T16:35:09.562Z,46.20
2022-12-13T16:37:59.745Z,46.47
2022-12-13T16:40:57.909Z,42.40
2022-12-13T16:43:55.056Z,42.90
2022-12-13T16:47:11.779Z,41.17
2022-12-13T16:49:52.682Z,39.30
2022-12-13T16:52:36.033Z,39.72
2022-12-13T16:55:25.491Z,39.33
2022-12-13T16:58:10.053Z,39.13
2022-12-13T17:00:52.310Z,38.95
2022-12-13T17:03:48.080Z,40.65
2022-12-13T17:06:37.418Z,40.00
2022-12-13T17:09:20.052Z,43.20
2022-12-13T17:12:09.406Z,41.65
2022-12-13T17:14:51.070Z,43.85
2022-12-13T17:17:41.464Z,41.65
2022-12-13T17:20:26.103Z,42.95
2022-12-13T17:23:17.942Z,40.03
2022-12-13T17:26:00.001Z,37.97
2022-12-13T17:28:48.455Z,36.53
2022-12-13T17:31:35.632Z,36.85
2022-12-13T17:34:25.380Z,38.10
2022-12-13T17:37:10.643Z,34.63
2022-12-13T17:39:59.446Z,38.97
2022-12-13T17:42:43.086Z,37.95
2022-12-13T17:45:32.436Z,38.25
2022-12-13T17:48:14.884Z,36.10
2022-12-13T17:51:04.344Z,37.55
2022-12-13T17:53:50.945Z,37.80
2022-12-13T17:56:41.460Z,37.47
2022-12-13T17:59:23.998Z,37.90
2022-12-13T18:02:06.223Z,38.80
2022-12-13T18:04:54.952Z,38.42
2022-12-13T18:07:43.912Z,40.10
2022-12-13T18:10:33.486Z,39.47
2022-12-13T18:13:22.247Z,40.50
2022-12-13T18:16:05.544Z,40.65
2022-12-13T18:18:55.772Z,40.90
2022-12-13T18:21:38.246Z,40.53
2022-12-13T18:24:27.101Z,40.88
2022-12-13T18:27:09.383Z,39.42
2022-12-13T18:29:58.026Z,39.53
2022-12-13T18:32:43.881Z,41.10
2022-12-13T18:35:33.075Z,40.85
2022-12-13T18:38:14.954Z,40.15
2022-12-13T18:40:58.515Z,40.25
2022-12-13T18:44:10.024Z,37.60
2022-12-13T18:46:59.495Z,38.08
2022-12-13T18:49:41.985Z,38.22
2022-12-13T18:52:45.031Z,40.13
2022-12-13T18:55:27.941Z,38.58
2022-12-13T18:58:17.091Z,40.33
2022-12-13T19:00:59.444Z,41.10
2022-12-13T19:03:48.013Z,41.33
2022-12-13T19:06:33.350Z,41.72
2022-12-13T19:09:22.094Z,41.08
2022-12-13T19:12:04.498Z,40.92
2022-12-13T19:14:55.310Z,42.10
2022-12-13T19:17:37.586Z,37.92
2022-12-13T19:20:26.977Z,36.65
2022-12-13T19:23:09.369Z,37.35
2022-12-13T19:25:59.127Z,34.65
2022-12-13T19:28:45.372Z,32.00
2022-12-13T19:31:35.055Z,31.35
2022-12-13T19:34:18.017Z,31.40
2022-12-13T19:37:07.022Z,31.45
2022-12-13T19:39:49.211Z,30.85
2022-12-13T19:42:37.681Z,28.35
2022-12-13T19:45:25.954Z,24.17
2022-12-13T19:48:08.043Z,23.48
2022-12-13T19:50:57.072Z,22.27
2022-12-13T19:53:40.743Z,22.55
2022-12-13T19:56:31.035Z,21.63
2022-12-13T19:59:13.467Z,22.00
2022-12-13T20:02:01.794Z,21.80
2022-12-13T20:04:47.019Z,21.65
2022-12-13T20:07:35.997Z,24.88
2022-12-13T20:10:25.930Z,25.17
2022-12-13T20:13:15.078Z,24.77
2022-12-13T20:16:03.993Z,26.77
2022-12-13T20:18:54.003Z,25.55
2022-12-13T20:21:43.925Z,25.48
2022-12-13T20:24:27.159Z,27.15
2022-12-13T20:27:15.868Z,28.38
2022-12-13T20:30:05.348Z,28.45
2022-12-13T20:32:47.914Z,33.90
2022-12-13T20:38:39.017Z,36.25
2022-12-13T20:41:28.653Z,43.45
2022-12-13T20:44:20.969Z,40.53
2022-12-13T20:47:03.379Z,34.60
2022-12-13T20:49:51.919Z,34.95
2022-12-13T20:52:35.486Z,34.28
2022-12-13T20:55:29.013Z,36.35
2022-12-13T20:58:11.505Z,37.38
2022-12-13T21:00:59.875Z,37.58
2022-12-13T21:03:42.319Z,39.63
2022-12-13T21:06:31.073Z,38.97
2022-12-13T21:09:13.323Z,42.55
2022-12-13T21:12:01.843Z,44.78
2022-12-13T21:14:44.327Z,43.60
2022-12-13T21:17:32.853Z,45.17
2022-12-13T21:20:15.393Z,45.00
2022-12-13T21:23:04.006Z,44.70
2022-12-13T21:25:46.226Z,43.67
2022-12-13T21:28:37.031Z,41.20
2022-12-13T21:31:30.980Z,41.38
2022-12-13T21:34:20.402Z,37.50
2022-12-13T21:37:02.959Z,35.50
2022-12-13T21:39:45.114Z,35.47
2022-12-13T21:42:33.858Z,32.95
2022-12-13T21:45:28.958Z,32.35
2022-12-13T21:48:17.998Z,31.60
2022-12-13T21:51:00.496Z,32.22
2022-12-13T21:53:49.061Z,30.23
2022-12-13T21:56:58.984Z,28.33
2022-12-13T21:59:41.157Z,29.70
2022-12-13T22:02:31.932Z,30.80
2022-12-13T22:05:26.861Z,29.27
2022-12-13T22:08:09.169Z,28.13
2022-12-13T22:11:21.084Z,30.25
2022-12-13T22:14:03.250Z,37.83
2022-12-13T22:16:52.008Z,39.40
2022-12-13T22:19:40.868Z,33.05
2022-12-13T22:22:23.279Z,32.38
2022-12-13T22:25:11.913Z,29.25
2022-12-13T22:28:00.887Z,28.42
2022-12-13T22:30:50.224Z,27.83
2022-12-13T22:33:33.990Z,28.20
2022-12-13T22:36:16.463Z,43.90
2022-12-13T22:39:06.029Z,46.75
2022-12-13T22:41:49.098Z,37.03
2022-12-13T22:44:37.952Z,35.60
2022-12-13T22:47:26.972Z,33.38
2022-12-13T22:50:09.397Z,28.63
2022-12-13T22:52:57.947Z,26.90
2022-12-13T22:55:40.904Z,28.88
2022-12-13T22:58:30.089Z,26.47
2022-12-13T23:01:19.347Z,25.13
2022-12-13T23:04:09.027Z,25.10
2022-12-13T23:06:51.348Z,26.35
2022-12-13T23:09:39.993Z,23.52
2022-12-13T23:12:40.613Z,24.55
2022-12-13T23:15:29.983Z,24.80
2022-12-13T23:18:18.983Z,24.95
2022-12-13T23:21:07.931Z,23.35
2022-12-13T23:23:50.260Z,24.55
2022-12-13T23:26:40.888Z,23.90
2022-12-13T23:29:29.957Z,23.80
2022-12-13T23:32:19.212Z,24.80
2022-12-13T23:35:02.958Z,24.30
2022-12-13T23:37:45.185Z,25.20
2022-12-13T23:40:36.999Z,24.45
2022-12-13T23:43:31.862Z,24.63
2022-12-13T23:46:30.958Z,24.80
2022-12-13T23:49:19.223Z,24.67
2022-12-13T23:52:01.901Z,23.52
2022-12-13T23:54:50.249Z,23.15
2022-12-13T23:57:31.940Z,23.70
